HBBA/BJM METAR and TAF weather

Enter ICAO airport designator
Station Type Date Time Source
HBBA METAR 2021/05/10 18:00 UTC NOAA

HBBA 101800Z 18012KT 9999 FEW025 BKN100 25/20 Q1014 NOSIG


Station Type Date Time Source
HBBA Decoded METAR 2021/05/10 18:00 UTC NOAA

Bujumbura, Burundi (HBBA) 03-19S 029-19E 783M
May 10, 2021 - 02:00 PM EDT / 2021.05.10 1800 UTC
Wind: from the S (180 degrees) at 14 MPH (12 KT):0
Visibility: greater than 7 mile(s):0
Sky conditions: mostly cloudy
Temperature: 77 F (25 C)
Dew Point: 68 F (20 C)
Relative Humidity: 73%
Pressure (altimeter): 29.94 in. Hg (1014 hPa)
ob: HBBA 101800Z 18012KT 9999 FEW025 BKN100 25/20 Q1014 NOSIG
cycle: 18

Station Type Date Time Source
HBBA TAF 2021/05/10 18:56 UTC NOAA

TAF HBBA 101700Z 1018/1124 36004KT 9999 FEW030 SCT100
BECMG1108/1110 18008G20KT 9999 FEW025 BKN100 PROB30 T EMPO1111/1117 09010G22KT 7000 -TSRA OR SHRA SCT025CB BKN090
BECMG1119/1121 VRB030KT 9000 FEW030 SCT100

Example: see airport list